createdAt,value
2022-11-21T00:01:24.157Z,4.40
2022-11-21T00:03:51.695Z,4.50
2022-11-21T00:06:19.170Z,4.40
2022-11-21T00:08:46.507Z,4.60
2022-11-21T00:11:13.631Z,4.60
2022-11-21T00:13:41.165Z,4.70
2022-11-21T00:16:13.854Z,4.70
2022-11-21T00:18:41.769Z,4.70
2022-11-21T00:21:15.154Z,4.60
2022-11-21T00:23:43.486Z,4.60
2022-11-21T00:26:12.583Z,4.60
2022-11-21T00:28:39.589Z,4.60
2022-11-21T00:31:07.032Z,4.60
2022-11-21T00:33:37.333Z,4.70
2022-11-21T00:36:09.116Z,4.70
2022-11-21T00:38:36.785Z,4.80
2022-11-21T00:41:03.874Z,4.80
2022-11-21T00:43:30.709Z,4.80
2022-11-21T00:45:59.408Z,4.80
2022-11-21T00:48:26.236Z,4.80
2022-11-21T00:50:53.040Z,4.80
2022-11-21T00:53:19.853Z,4.80
2022-11-21T00:55:46.703Z,4.80
2022-11-21T00:58:13.476Z,4.90
2022-11-21T01:00:40.376Z,4.80
2022-11-21T01:03:07.164Z,4.80
2022-11-21T01:05:34.142Z,4.80
2022-11-21T01:08:00.972Z,4.80
2022-11-21T01:10:27.744Z,4.90
2022-11-21T01:12:54.565Z,4.90
2022-11-21T01:15:21.356Z,4.80
2022-11-21T01:17:48.253Z,4.90
2022-11-21T01:20:15.191Z,4.80
2022-11-21T01:22:42.065Z,4.80
2022-11-21T01:25:09.056Z,4.90
2022-11-21T01:27:36.053Z,5.00
2022-11-21T01:30:03.706Z,5.00
2022-11-21T01:32:30.483Z,5.00
2022-11-21T01:34:57.314Z,5.00
2022-11-21T01:37:24.165Z,5.10
2022-11-21T01:39:51.591Z,5.00
2022-11-21T01:42:18.410Z,4.90
2022-11-21T01:44:54.459Z,4.90
2022-11-21T01:47:22.674Z,4.90
2022-11-21T01:49:52.223Z,4.80
2022-11-21T01:52:31.855Z,4.70
2022-11-21T01:55:08.020Z,4.80
2022-11-21T01:57:45.480Z,4.70
2022-11-21T02:00:27.876Z,4.70
2022-11-21T02:03:00.735Z,4.80
2022-11-21T02:05:31.695Z,4.70
2022-11-21T02:08:14.579Z,4.60
2022-11-21T02:10:56.865Z,4.70
2022-11-21T02:13:23.723Z,4.50
2022-11-21T02:15:50.924Z,4.50
2022-11-21T02:18:17.782Z,4.50
2022-11-21T02:20:51.356Z,4.50
2022-11-21T02:24:00.162Z,4.50
2022-11-21T02:26:27.394Z,4.50
2022-11-21T02:28:54.639Z,4.50
2022-11-21T02:31:21.452Z,4.60
2022-11-21T02:33:48.264Z,4.70
2022-11-21T02:36:46.133Z,4.70
2022-11-21T02:39:33.753Z,4.70
2022-11-21T02:43:03.724Z,4.80
2022-11-21T02:45:43.122Z,4.90
2022-11-21T02:48:11.040Z,4.80
2022-11-21T02:50:41.059Z,4.70
2022-11-21T02:53:12.108Z,4.80
2022-11-21T02:55:39.264Z,4.80
2022-11-21T02:58:06.413Z,4.80
2022-11-21T03:00:35.438Z,4.70
2022-11-21T03:03:02.375Z,4.70
2022-11-21T03:05:29.552Z,4.60
2022-11-21T03:07:56.513Z,4.60
2022-11-21T03:10:23.413Z,4.60
2022-11-21T03:12:50.225Z,4.50
2022-11-21T03:15:17.215Z,4.50
2022-11-21T03:17:44.084Z,4.60
2022-11-21T03:20:11.385Z,4.50
2022-11-21T03:22:38.205Z,4.50
2022-11-21T03:25:05.569Z,4.60
2022-11-21T03:27:32.370Z,4.50
2022-11-21T03:29:59.204Z,4.50
2022-11-21T03:32:26.067Z,4.50
2022-11-21T03:34:53.513Z,4.50
2022-11-21T03:37:20.433Z,4.50
2022-11-21T03:39:47.228Z,4.50
2022-11-21T03:42:14.051Z,4.40
2022-11-21T03:44:40.858Z,4.40
2022-11-21T03:47:07.869Z,4.50
2022-11-21T03:49:34.672Z,4.40
2022-11-21T03:52:01.522Z,4.40
2022-11-21T03:54:28.557Z,4.40
2022-11-21T03:56:55.492Z,4.40
2022-11-21T03:59:22.296Z,4.40
2022-11-21T04:01:49.248Z,4.40
2022-11-21T04:04:16.139Z,4.50
2022-11-21T04:06:42.971Z,4.30
2022-11-21T04:09:09.893Z,4.30
2022-11-21T04:11:37.622Z,4.30
2022-11-21T04:14:04.532Z,4.40
2022-11-21T04:16:31.349Z,4.40
2022-11-21T04:18:58.325Z,4.50
2022-11-21T04:21:25.186Z,4.70
2022-11-21T04:23:52.069Z,4.60
2022-11-21T04:26:18.890Z,4.70
2022-11-21T04:28:45.741Z,4.60
2022-11-21T04:31:12.547Z,4.70
2022-11-21T04:33:39.925Z,4.80
2022-11-21T04:36:08.630Z,4.80
2022-11-21T04:38:36.024Z,4.90
2022-11-21T04:41:02.877Z,5.00
2022-11-21T04:43:29.675Z,5.00
2022-11-21T04:45:56.471Z,5.00
2022-11-21T04:48:23.316Z,4.90
2022-11-21T04:50:50.332Z,5.00
2022-11-21T04:53:17.158Z,5.00
2022-11-21T04:55:43.992Z,4.90
2022-11-21T04:58:10.882Z,4.90
2022-11-21T05:00:37.673Z,4.90
2022-11-21T05:03:06.713Z,5.00
2022-11-21T05:05:33.922Z,5.00
2022-11-21T05:08:00.699Z,5.00
2022-11-21T05:10:27.597Z,5.00
2022-11-21T05:13:18.532Z,4.80
2022-11-21T05:15:45.525Z,4.90
2022-11-21T05:18:12.387Z,4.90
2022-11-21T05:20:39.313Z,4.70
2022-11-21T05:23:06.395Z,4.60
2022-11-21T05:25:33.272Z,4.60
2022-11-21T05:28:00.225Z,4.50
2022-11-21T05:30:27.115Z,4.50
2022-11-21T05:32:53.988Z,4.40
2022-11-21T05:35:20.811Z,4.40
2022-11-21T05:37:47.657Z,4.50
2022-11-21T05:40:14.603Z,4.30
2022-11-21T05:43:01.428Z,4.40
2022-11-21T05:45:28.199Z,4.50
2022-11-21T05:47:54.972Z,4.50
2022-11-21T05:50:21.830Z,4.50
2022-11-21T05:52:48.669Z,4.50
2022-11-21T05:55:15.588Z,4.40
2022-11-21T05:57:42.511Z,4.40
2022-11-21T06:00:09.960Z,4.30
2022-11-21T06:02:55.258Z,4.30
2022-11-21T06:05:22.145Z,4.30
2022-11-21T06:07:49.290Z,4.30
2022-11-21T06:10:17.883Z,4.40
2022-11-21T06:12:44.686Z,4.40
2022-11-21T06:15:11.553Z,4.50
2022-11-21T06:17:38.424Z,4.50
2022-11-21T06:20:05.922Z,4.50
2022-11-21T06:22:32.765Z,4.40
2022-11-21T06:24:59.602Z,4.50
2022-11-21T06:27:26.483Z,4.50
2022-11-21T06:29:53.288Z,4.50
2022-11-21T06:32:20.211Z,4.60
2022-11-21T06:34:47.154Z,4.50
2022-11-21T06:37:13.935Z,4.50
2022-11-21T06:39:40.727Z,4.60
2022-11-21T06:42:07.576Z,4.60
2022-11-21T06:44:34.372Z,4.70
2022-11-21T06:47:01.181Z,4.60
2022-11-21T06:49:28.029Z,4.60
2022-11-21T06:51:54.891Z,4.60
2022-11-21T06:54:21.682Z,4.50
2022-11-21T06:56:52.164Z,4.40
2022-11-21T06:59:19.002Z,4.40
2022-11-21T07:01:45.851Z,4.40
2022-11-21T07:04:12.711Z,4.40
2022-11-21T07:06:39.498Z,4.50
2022-11-21T07:11:53.107Z,4.60
2022-11-21T07:14:19.990Z,4.60
2022-11-21T07:16:46.763Z,4.70
2022-11-21T07:19:13.596Z,4.60
2022-11-21T07:21:40.386Z,4.70
2022-11-21T07:24:07.352Z,4.80
2022-11-21T07:26:34.168Z,5.00
2022-11-21T07:29:01.151Z,5.20
2022-11-21T07:31:27.986Z,5.40
2022-11-21T07:33:54.823Z,5.40
2022-11-21T07:36:21.634Z,5.40
2022-11-21T07:38:48.539Z,5.50
2022-11-21T07:41:15.353Z,5.50
2022-11-21T07:43:42.201Z,5.60
2022-11-21T07:46:11.363Z,5.60
2022-11-21T07:48:38.237Z,5.70
2022-11-21T07:51:05.949Z,5.70
2022-11-21T07:53:32.956Z,5.70
2022-11-21T07:56:00.762Z,5.70
2022-11-21T07:58:27.620Z,5.60
2022-11-21T08:00:54.526Z,5.60
2022-11-21T08:03:22.601Z,5.60
2022-11-21T08:05:49.640Z,5.50
2022-11-21T08:08:16.499Z,5.50
2022-11-21T08:10:45.512Z,5.60
2022-11-21T08:13:13.152Z,5.70
2022-11-21T08:15:40.008Z,6.00
2022-11-21T08:18:15.121Z,6.20
2022-11-21T08:20:43.028Z,6.30
2022-11-21T08:23:10.765Z,6.60
2022-11-21T08:25:39.463Z,6.60
2022-11-21T08:28:08.361Z,6.50
2022-11-21T08:30:36.304Z,6.50
2022-11-21T08:33:04.199Z,6.40
2022-11-21T08:35:31.236Z,6.30
2022-11-21T08:38:02.340Z,6.50
2022-11-21T08:40:31.726Z,6.60
2022-11-21T08:42:59.879Z,7.40
2022-11-21T08:45:26.844Z,7.80
2022-11-21T08:47:54.579Z,7.70
2022-11-21T08:50:22.876Z,6.90
2022-11-21T08:52:50.176Z,6.70
2022-11-21T08:55:17.126Z,6.50
2022-11-21T08:57:43.972Z,6.50
2022-11-21T09:00:14.352Z,6.60
2022-11-21T09:02:41.200Z,6.60
2022-11-21T09:05:08.906Z,6.60
2022-11-21T09:07:36.009Z,6.50
2022-11-21T09:10:03.434Z,7.10
2022-11-21T09:12:30.996Z,8.10
2022-11-21T09:15:16.313Z,8.00
2022-11-21T09:18:01.567Z,7.70
2022-11-21T09:20:28.572Z,7.70
2022-11-21T09:22:55.471Z,7.60
2022-11-21T09:25:22.320Z,7.60
2022-11-21T09:27:49.131Z,7.70
2022-11-21T09:30:16.639Z,7.40
2022-11-21T09:32:43.491Z,7.30
2022-11-21T09:35:10.337Z,7.50
2022-11-21T09:37:40.357Z,7.80
2022-11-21T09:40:18.655Z,8.00
2022-11-21T09:42:57.333Z,8.60
2022-11-21T09:45:49.854Z,9.30
2022-11-21T09:48:30.912Z,10.30
2022-11-21T09:51:11.806Z,10.90
2022-11-21T09:53:57.531Z,11.50
2022-11-21T09:56:26.364Z,11.60
2022-11-21T09:59:25.592Z,11.60
2022-11-21T10:01:52.437Z,11.50
2022-11-21T10:04:19.273Z,11.70
2022-11-21T10:07:10.185Z,11.50
2022-11-21T10:10:11.112Z,12.20
2022-11-21T10:12:56.491Z,13.00
2022-11-21T10:16:07.244Z,13.20
2022-11-21T10:18:56.569Z,12.30
2022-11-21T10:21:52.288Z,12.70
2022-11-21T10:24:30.854Z,13.50
2022-11-21T10:27:07.164Z,13.50
2022-11-21T10:29:57.988Z,13.70
2022-11-21T10:32:31.137Z,13.10
2022-11-21T10:35:14.108Z,12.50
2022-11-21T10:37:48.093Z,12.30
2022-11-21T10:40:45.075Z,12.70
2022-11-21T10:43:50.607Z,13.20
2022-11-21T10:46:17.422Z,13.60
2022-11-21T10:48:56.294Z,12.50
2022-11-21T10:51:47.900Z,12.90
2022-11-21T10:54:33.620Z,12.10
2022-11-21T10:57:20.788Z,11.70
2022-11-21T11:00:01.130Z,11.30
2022-11-21T11:02:28.239Z,11.50
2022-11-21T11:05:22.200Z,12.60
2022-11-21T11:08:12.240Z,14.10
2022-11-21T11:10:45.041Z,15.40
2022-11-21T11:13:50.106Z,14.60
2022-11-21T11:16:21.394Z,15.10
2022-11-21T11:19:03.311Z,15.20
2022-11-21T11:21:44.163Z,15.40
2022-11-21T11:24:10.948Z,16.40
2022-11-21T11:26:48.487Z,16.50
2022-11-21T11:29:32.479Z,17.30
2022-11-21T11:31:59.413Z,17.40
2022-11-21T11:34:38.228Z,17.60
2022-11-21T11:37:20.707Z,18.10
2022-11-21T11:40:07.384Z,18.60
2022-11-21T11:43:28.923Z,19.20
2022-11-21T11:46:49.005Z,18.90
2022-11-21T11:50:01.465Z,19.70
2022-11-21T11:52:35.004Z,18.30
2022-11-21T11:55:08.794Z,16.00
2022-11-21T11:57:37.538Z,14.90
2022-11-21T12:00:27.853Z,13.50
2022-11-21T12:03:12.690Z,12.70
2022-11-21T12:05:52.371Z,12.00
2022-11-21T12:08:41.566Z,11.40
2022-11-21T12:11:44.709Z,11.30
2022-11-21T12:14:40.410Z,12.00
2022-11-21T12:17:10.327Z,12.90
2022-11-21T12:19:39.100Z,14.90
2022-11-21T12:22:06.664Z,16.70
2022-11-21T12:24:42.551Z,18.30
2022-11-21T12:27:45.160Z,17.90
2022-11-21T12:30:25.173Z,15.50
2022-11-21T12:32:58.748Z,13.40
2022-11-21T12:36:17.356Z,11.80
2022-11-21T12:39:10.159Z,11.00
2022-11-21T12:42:42.850Z,11.00
2022-11-21T12:45:32.567Z,10.90
2022-11-21T12:48:37.593Z,12.90
2022-11-21T12:52:03.622Z,13.60
2022-11-21T12:55:15.694Z,14.40
2022-11-21T12:58:13.079Z,14.30
2022-11-21T13:01:10.043Z,13.10
2022-11-21T13:04:17.664Z,12.90
2022-11-21T13:06:48.872Z,12.60
2022-11-21T13:09:20.556Z,15.20
2022-11-21T13:11:59.299Z,17.30
2022-11-21T13:14:45.952Z,18.70
2022-11-21T13:17:34.691Z,20.00
2022-11-21T13:20:25.907Z,20.90
2022-11-21T13:23:06.591Z,21.40
2022-11-21T13:25:35.326Z,21.50
2022-11-21T13:28:14.263Z,21.70
2022-11-21T13:30:51.255Z,21.60
2022-11-21T13:33:48.327Z,22.40
2022-11-21T13:36:31.954Z,21.70
2022-11-21T13:38:58.788Z,21.30
2022-11-21T13:41:53.172Z,21.80
2022-11-21T13:44:32.119Z,22.00
2022-11-21T13:47:15.160Z,20.50
2022-11-21T13:50:16.376Z,20.10
2022-11-21T13:53:38.265Z,18.60
2022-11-21T13:56:42.677Z,19.20
2022-11-21T13:59:48.255Z,19.30
2022-11-21T14:03:04.216Z,19.70
2022-11-21T14:05:46.238Z,20.50
2022-11-21T14:08:18.704Z,20.70
2022-11-21T14:10:46.920Z,21.40
2022-11-21T14:13:33.650Z,22.70
2022-11-21T14:16:24.423Z,20.50
2022-11-21T14:18:51.825Z,19.50
2022-11-21T14:21:27.167Z,20.40
2022-11-21T14:23:58.246Z,18.30
2022-11-21T14:26:25.822Z,17.00
2022-11-21T14:28:52.910Z,15.90
2022-11-21T14:31:19.787Z,16.20
2022-11-21T14:33:48.068Z,17.30
2022-11-21T14:36:29.843Z,18.00
2022-11-21T14:39:35.535Z,18.60
2022-11-21T14:41:55.235Z,18.70
2022-11-21T14:44:23.399Z,18.10
2022-11-21T14:46:51.727Z,16.80
2022-11-21T14:49:24.459Z,15.70
2022-11-21T14:52:10.847Z,14.60
2022-11-21T14:55:13.550Z,13.40
2022-11-21T14:57:39.223Z,12.70
2022-11-21T15:00:07.552Z,12.00
2022-11-21T15:02:35.159Z,11.40
2022-11-21T15:05:12.552Z,10.90
2022-11-21T15:07:47.643Z,10.20
2022-11-21T15:10:30.093Z,9.80
2022-11-21T15:13:08.256Z,9.20
2022-11-21T15:15:40.700Z,8.80
2022-11-21T15:18:29.893Z,8.40
2022-11-21T15:21:01.387Z,8.10
2022-11-21T15:23:35.270Z,8.00
2022-11-21T15:26:02.618Z,7.90
2022-11-21T15:28:30.939Z,7.80
2022-11-21T15:31:20.427Z,7.50
2022-11-21T15:34:33.261Z,7.50
2022-11-21T15:37:18.065Z,7.40
2022-11-21T15:39:48.673Z,7.20
2022-11-21T15:42:27.793Z,7.00
2022-11-21T15:45:02.327Z,6.80
2022-11-21T15:47:29.229Z,6.70
2022-11-21T15:49:56.106Z,6.70
2022-11-21T15:52:23.464Z,6.70
2022-11-21T15:54:50.351Z,6.50
2022-11-21T15:59:50.516Z,6.40
2022-11-21T16:02:17.456Z,6.30
2022-11-21T16:04:44.297Z,6.20
2022-11-21T16:07:11.166Z,6.10
2022-11-21T16:09:38.767Z,5.90
2022-11-21T16:12:05.671Z,5.80
2022-11-21T16:14:32.462Z,5.70
2022-11-21T16:16:59.301Z,5.50
2022-11-21T16:19:26.248Z,5.50
2022-11-21T16:21:53.700Z,5.50
2022-11-21T16:24:20.711Z,5.50
2022-11-21T16:26:49.396Z,5.50
2022-11-21T16:29:18.911Z,5.50
2022-11-21T16:31:45.995Z,5.40
2022-11-21T16:34:13.112Z,5.50
2022-11-21T16:36:39.948Z,5.50
2022-11-21T16:39:11.189Z,5.50
2022-11-21T16:41:41.117Z,5.40
2022-11-21T16:44:14.278Z,5.40
2022-11-21T16:46:48.136Z,5.30
2022-11-21T16:49:15.174Z,5.30
2022-11-21T16:51:42.049Z,5.20
2022-11-21T16:54:09.674Z,5.10
2022-11-21T16:56:36.756Z,5.10
2022-11-21T16:59:03.573Z,5.10
2022-11-21T17:01:30.515Z,5.00
2022-11-21T17:03:57.518Z,5.00
2022-11-21T17:06:29.050Z,4.90
2022-11-21T17:08:56.003Z,4.80
2022-11-21T17:11:30.576Z,4.70
2022-11-21T17:14:02.311Z,4.60
2022-11-21T17:16:29.923Z,4.50
2022-11-21T17:18:59.635Z,4.40
2022-11-21T17:21:27.886Z,4.40
2022-11-21T17:23:55.264Z,4.30
2022-11-21T17:26:25.452Z,4.20
2022-11-21T17:28:58.243Z,4.30
2022-11-21T17:31:25.493Z,4.20
2022-11-21T17:33:54.302Z,4.20
2022-11-21T17:36:23.961Z,4.10
2022-11-21T17:38:52.246Z,4.10
2022-11-21T17:41:21.402Z,4.10
2022-11-21T17:43:48.984Z,4.00
2022-11-21T17:46:18.651Z,4.10
2022-11-21T17:48:54.264Z,4.10
2022-11-21T17:51:28.980Z,4.10
2022-11-21T17:53:56.018Z,4.00
2022-11-21T17:56:26.327Z,3.90
2022-11-21T17:58:53.464Z,3.90
2022-11-21T18:01:21.932Z,3.80
2022-11-21T18:04:01.795Z,3.80
2022-11-21T18:06:33.469Z,3.70
2022-11-21T18:09:00.414Z,3.80
2022-11-21T18:11:39.149Z,3.70
2022-11-21T18:14:08.698Z,3.70
2022-11-21T18:16:36.401Z,3.60
2022-11-21T18:19:03.342Z,3.50
2022-11-21T18:21:33.460Z,3.50
2022-11-21T18:24:00.583Z,3.50
2022-11-21T18:26:31.239Z,3.50
2022-11-21T18:29:36.218Z,3.50
2022-11-21T18:31:48.463Z,3.40
2022-11-21T18:34:15.272Z,3.50
2022-11-21T18:36:42.153Z,3.40
2022-11-21T18:39:14.801Z,3.40
2022-11-21T18:41:42.708Z,3.30
2022-11-21T18:44:09.959Z,3.30
2022-11-21T18:46:38.240Z,3.30
2022-11-21T18:49:06.891Z,3.20
2022-11-21T18:51:35.418Z,3.10
2022-11-21T18:54:07.870Z,3.10
2022-11-21T18:56:36.495Z,3.10
2022-11-21T18:59:05.656Z,3.10
2022-11-21T19:01:33.745Z,3.20
2022-11-21T19:04:00.680Z,3.10
2022-11-21T19:06:29.053Z,3.10
2022-11-21T19:08:57.620Z,3.10
2022-11-21T19:11:29.665Z,3.20
2022-11-21T19:13:59.179Z,3.10
2022-11-21T19:16:28.413Z,3.10
2022-11-21T19:19:26.453Z,3.00
2022-11-21T19:21:42.969Z,2.90
2022-11-21T19:24:14.557Z,2.90
2022-11-21T19:26:42.058Z,2.80
2022-11-21T19:29:09.737Z,2.80
2022-11-21T19:31:43.027Z,2.70
2022-11-21T19:34:13.990Z,2.80
2022-11-21T19:36:41.524Z,2.70
2022-11-21T19:39:09.021Z,2.70
2022-11-21T19:41:35.976Z,2.80
2022-11-21T19:44:03.090Z,2.70
2022-11-21T19:46:37.294Z,2.70
2022-11-21T19:49:06.597Z,2.80
2022-11-21T19:51:41.929Z,2.80
2022-11-21T19:54:11.819Z,2.80
2022-11-21T19:56:39.104Z,2.90
2022-11-21T19:59:05.921Z,2.90
2022-11-21T20:01:34.934Z,2.90
2022-11-21T20:04:04.464Z,2.90
2022-11-21T20:06:35.385Z,2.90
2022-11-21T20:09:20.388Z,2.80
2022-11-21T20:11:50.678Z,2.80
2022-11-21T20:14:22.221Z,2.80
2022-11-21T20:16:52.850Z,2.90
2022-11-21T20:19:22.655Z,2.80
2022-11-21T20:21:49.766Z,2.80
2022-11-21T20:24:17.070Z,2.80
2022-11-21T20:26:45.050Z,2.80
2022-11-21T20:29:15.548Z,2.90
2022-11-21T20:31:45.543Z,3.00
2022-11-21T20:34:13.749Z,2.90
2022-11-21T20:36:41.720Z,2.90
2022-11-21T20:39:15.200Z,3.00
2022-11-21T20:41:42.059Z,2.90
2022-11-21T20:47:09.104Z,3.10
2022-11-21T20:49:35.990Z,3.20
2022-11-21T20:53:43.768Z,3.20
2022-11-21T20:54:49.637Z,3.20
2022-11-21T20:57:16.536Z,3.20
2022-11-21T20:59:43.556Z,3.10
2022-11-21T21:02:14.318Z,3.10
2022-11-21T21:04:41.829Z,3.00
2022-11-21T21:07:08.832Z,3.00
2022-11-21T21:09:35.687Z,3.10
2022-11-21T21:12:02.515Z,3.10
2022-11-21T21:14:29.362Z,3.00
2022-11-21T21:16:56.210Z,3.00
2022-11-21T21:19:23.246Z,3.00
2022-11-21T21:21:50.232Z,3.00
2022-11-21T21:24:17.440Z,3.10
2022-11-21T21:26:47.977Z,3.10
2022-11-21T21:29:21.207Z,3.10
2022-11-21T21:31:52.819Z,3.00
2022-11-21T21:34:22.275Z,3.00
2022-11-21T21:36:50.850Z,3.00
2022-11-21T21:39:17.982Z,3.10
2022-11-21T21:41:46.641Z,3.10
2022-11-21T21:44:14.865Z,3.10
2022-11-21T21:46:41.958Z,3.20
2022-11-21T21:49:09.030Z,3.30
2022-11-21T21:51:37.275Z,3.20
2022-11-21T21:54:04.963Z,3.20
2022-11-21T21:56:32.243Z,3.20
2022-11-21T21:58:59.620Z,3.30
2022-11-21T22:01:29.641Z,3.30
2022-11-21T22:03:59.996Z,3.30
2022-11-21T22:06:27.589Z,3.30
2022-11-21T22:08:55.801Z,3.30
2022-11-21T22:11:24.637Z,3.30
2022-11-21T22:14:06.894Z,3.20
2022-11-21T22:16:33.904Z,3.20
2022-11-21T22:19:00.720Z,3.10
2022-11-21T22:21:34.095Z,3.20
2022-11-21T22:26:50.998Z,3.10
2022-11-21T22:29:17.871Z,3.20
2022-11-21T22:31:44.739Z,3.10
2022-11-21T22:34:13.966Z,3.10
2022-11-21T22:36:41.487Z,3.20
2022-11-21T22:39:08.501Z,3.00
2022-11-21T22:41:35.361Z,3.10
2022-11-21T22:44:02.183Z,3.00
2022-11-21T22:46:30.459Z,3.00
2022-11-21T22:48:58.422Z,3.10
2022-11-21T22:51:29.261Z,3.00
2022-11-21T22:53:56.662Z,3.10
2022-11-21T22:56:24.648Z,3.10
2022-11-21T22:58:52.094Z,3.10
2022-11-21T23:01:26.638Z,3.10
2022-11-21T23:03:55.486Z,3.10
2022-11-21T23:06:25.276Z,3.10
2022-11-21T23:08:54.394Z,3.00
2022-11-21T23:11:28.267Z,3.00
2022-11-21T23:13:57.103Z,3.00
2022-11-21T23:16:24.990Z,2.90
2022-11-21T23:18:53.662Z,3.00
2022-11-21T23:21:22.260Z,3.00
2022-11-21T23:23:49.338Z,3.00
2022-11-21T23:26:16.167Z,2.90
2022-11-21T23:28:42.989Z,2.80
2022-11-21T23:31:10.563Z,2.80
2022-11-21T23:33:37.493Z,2.80
2022-11-21T23:36:04.641Z,2.80
2022-11-21T23:38:31.832Z,2.70
2022-11-21T23:40:58.684Z,2.70
2022-11-21T23:43:25.595Z,2.70
2022-11-21T23:45:53.732Z,2.70
2022-11-21T23:48:21.495Z,2.60
2022-11-21T23:50:50.894Z,2.60
2022-11-21T23:53:21.340Z,2.60
2022-11-21T23:55:48.996Z,2.50
2022-11-21T23:58:16.428Z,2.60
